createdAt,value
2019-03-12T00:00:07.695Z,5.15
2019-03-12T00:02:38.103Z,4.43
2019-03-12T00:05:07.910Z,5.03
2019-03-12T00:07:36.488Z,4.95
2019-03-12T00:10:08.256Z,4.70
2019-03-12T00:12:37.238Z,5.17
2019-03-12T00:15:06.746Z,5.23
2019-03-12T00:17:35.629Z,5.07
2019-03-12T00:20:05.306Z,5.13
2019-03-12T00:22:34.146Z,4.80
2019-03-12T00:25:03.034Z,5.40
2019-03-12T00:27:31.794Z,4.73
2019-03-12T00:30:02.434Z,4.35
2019-03-12T00:32:31.633Z,4.95
2019-03-12T00:35:01.964Z,4.67
2019-03-12T00:37:31.987Z,5.90
2019-03-12T00:40:01.978Z,4.75
2019-03-12T00:42:30.871Z,4.57
2019-03-12T00:45:00.074Z,4.83
2019-03-12T00:47:28.648Z,4.70
2019-03-12T00:49:57.739Z,4.47
2019-03-12T00:52:26.678Z,4.45
2019-03-12T00:54:56.443Z,4.37
2019-03-12T00:57:24.990Z,4.85
2019-03-12T00:59:56.316Z,4.17
2019-03-12T01:02:24.402Z,5.83
2019-03-12T01:04:53.228Z,4.53
2019-03-12T01:07:21.917Z,4.77
2019-03-12T01:09:50.490Z,4.75
2019-03-12T01:12:19.081Z,4.90
2019-03-12T01:14:47.684Z,4.37
2019-03-12T01:17:16.242Z,4.63
2019-03-12T01:19:44.826Z,4.30
2019-03-12T01:22:13.616Z,4.20
2019-03-12T01:24:42.499Z,4.00
2019-03-12T01:27:11.101Z,3.93
2019-03-12T01:29:39.971Z,4.30
2019-03-12T01:32:08.860Z,3.92
2019-03-12T01:34:37.750Z,4.97
2019-03-12T01:37:06.523Z,4.97
2019-03-12T01:39:35.423Z,5.00
2019-03-12T01:42:05.540Z,4.10
2019-03-12T01:44:34.735Z,4.05
2019-03-12T01:47:03.418Z,4.10
2019-03-12T01:49:32.017Z,4.60
2019-03-12T01:52:00.920Z,4.62
2019-03-12T01:54:29.783Z,4.10
2019-03-12T01:56:58.666Z,4.17
2019-03-12T01:59:27.862Z,3.83
2019-03-12T02:01:56.451Z,4.28
2019-03-12T02:04:25.359Z,3.87
2019-03-12T02:06:57.230Z,4.47
2019-03-12T02:09:24.657Z,4.53
2019-03-12T02:11:53.559Z,3.80
2019-03-12T02:14:26.858Z,4.75
2019-03-12T02:16:55.742Z,4.15
2019-03-12T02:19:24.306Z,4.60
2019-03-12T02:21:54.448Z,3.72
2019-03-12T02:24:23.311Z,4.47
2019-03-12T02:26:52.094Z,5.30
2019-03-12T02:29:20.700Z,3.70
2019-03-12T02:31:49.574Z,4.13
2019-03-12T02:34:18.176Z,3.87
2019-03-12T02:36:47.041Z,3.87
2019-03-12T02:39:16.100Z,3.90
2019-03-12T02:41:45.124Z,3.70
2019-03-12T02:44:13.715Z,3.97
2019-03-12T02:46:42.600Z,3.70
2019-03-12T02:49:12.099Z,3.53
2019-03-12T02:51:41.606Z,4.17
2019-03-12T02:54:10.197Z,3.50
2019-03-12T02:56:39.075Z,4.20
2019-03-12T02:59:07.973Z,3.93
2019-03-12T03:01:36.548Z,3.85
2019-03-12T03:04:06.585Z,4.23
2019-03-12T03:06:37.113Z,3.30
2019-03-12T03:09:06.824Z,4.35
2019-03-12T03:11:36.936Z,4.67
2019-03-12T03:14:06.341Z,4.35
2019-03-12T03:16:34.907Z,3.35
2019-03-12T03:19:04.743Z,3.67
2019-03-12T03:21:33.416Z,4.15
2019-03-12T03:24:02.292Z,3.50
2019-03-12T03:26:31.180Z,3.47
2019-03-12T03:29:01.911Z,3.75
2019-03-12T03:31:31.120Z,4.28
2019-03-12T03:34:00.308Z,3.63
2019-03-12T03:36:29.184Z,3.10
2019-03-12T03:38:58.287Z,3.52
2019-03-12T03:41:28.804Z,4.07
2019-03-12T03:43:58.029Z,3.33
2019-03-12T03:46:27.300Z,3.42
2019-03-12T03:48:56.395Z,4.28
2019-03-12T03:51:24.975Z,4.62
2019-03-12T03:53:53.768Z,3.83
2019-03-12T03:56:22.459Z,3.80
2019-03-12T03:58:51.342Z,3.73
2019-03-12T04:01:20.949Z,3.50
2019-03-12T04:03:49.841Z,3.87
2019-03-12T04:06:18.417Z,3.60
2019-03-12T04:08:47.200Z,4.00
2019-03-12T04:11:15.783Z,3.90
2019-03-12T04:13:44.699Z,3.50
2019-03-12T04:16:13.262Z,4.07
2019-03-12T04:18:43.068Z,3.83
2019-03-12T04:21:11.656Z,3.87
2019-03-12T04:23:40.250Z,3.87
2019-03-12T04:26:09.142Z,4.93
2019-03-12T04:28:38.025Z,4.83
2019-03-12T04:31:06.904Z,3.83
2019-03-12T04:33:52.782Z,3.83
2019-03-12T04:36:21.866Z,3.98
2019-03-12T04:38:50.768Z,3.43
2019-03-12T04:41:19.356Z,4.53
2019-03-12T04:43:47.953Z,3.87
2019-03-12T04:46:16.518Z,4.23
2019-03-12T04:48:45.411Z,4.17
2019-03-12T04:51:13.982Z,4.67
2019-03-12T04:53:43.079Z,3.58
2019-03-12T04:56:11.667Z,3.63
2019-03-12T04:58:40.442Z,3.70
2019-03-12T05:01:09.026Z,3.15
2019-03-12T05:03:37.917Z,4.23
2019-03-12T05:06:06.508Z,4.33
2019-03-12T05:08:35.392Z,3.30
2019-03-12T05:11:03.997Z,3.92
2019-03-12T05:13:32.862Z,4.03
2019-03-12T05:16:01.751Z,4.07
2019-03-12T05:18:30.648Z,3.17
2019-03-12T05:20:59.961Z,3.70
2019-03-12T05:23:28.836Z,4.00
2019-03-12T05:25:58.135Z,4.30
2019-03-12T05:28:27.329Z,3.12
2019-03-12T05:30:56.213Z,4.33
2019-03-12T05:33:25.334Z,4.33
2019-03-12T05:35:54.202Z,4.50
2019-03-12T05:38:22.979Z,3.90
2019-03-12T05:40:51.811Z,4.50
2019-03-12T05:43:20.554Z,5.37
2019-03-12T05:45:49.442Z,3.83
2019-03-12T05:48:18.031Z,2.80
2019-03-12T05:50:46.910Z,3.93
2019-03-12T05:53:15.499Z,4.33
2019-03-12T05:55:44.181Z,3.55
2019-03-12T05:58:12.891Z,3.17
2019-03-12T06:00:42.270Z,3.67
2019-03-12T06:03:11.178Z,3.30
2019-03-12T06:05:40.151Z,3.67
2019-03-12T06:08:09.048Z,3.70
2019-03-12T06:10:37.935Z,4.13
2019-03-12T06:13:06.898Z,4.40
2019-03-12T06:15:35.703Z,3.70
2019-03-12T06:18:05.924Z,5.04
2019-03-12T06:20:34.709Z,3.93
2019-03-12T06:23:03.708Z,3.70
2019-03-12T06:25:32.590Z,4.07
2019-03-12T06:28:02.615Z,4.50
2019-03-12T06:30:33.157Z,3.20
2019-03-12T06:33:06.322Z,3.70
2019-03-12T06:35:42.589Z,4.07
2019-03-12T06:41:00.265Z,3.33
2019-03-12T06:43:46.934Z,3.90
2019-03-12T06:46:26.002Z,3.75
2019-03-12T06:49:04.992Z,4.75
2019-03-12T06:51:51.695Z,4.40
2019-03-12T06:54:22.122Z,3.95
2019-03-12T06:56:55.323Z,6.07
2019-03-12T06:59:25.663Z,4.08
2019-03-12T07:01:56.005Z,5.72
2019-03-12T07:04:26.550Z,5.20
2019-03-12T07:07:01.116Z,3.73
2019-03-12T07:09:43.570Z,3.33
2019-03-12T07:12:14.063Z,4.10
2019-03-12T07:14:53.792Z,4.28
2019-03-12T07:17:24.106Z,4.30
2019-03-12T07:19:57.814Z,5.03
2019-03-12T07:22:44.727Z,4.10
2019-03-12T07:25:24.054Z,4.05
2019-03-12T07:27:57.346Z,3.50
2019-03-12T07:30:27.567Z,3.45
2019-03-12T07:33:07.111Z,4.17
2019-03-12T07:35:37.530Z,4.27
2019-03-12T07:38:11.031Z,3.27
2019-03-12T07:40:51.189Z,3.95
2019-03-12T07:43:25.096Z,3.42
2019-03-12T07:45:55.514Z,4.77
2019-03-12T07:48:41.094Z,3.35
2019-03-12T07:51:27.822Z,4.30
2019-03-12T07:53:59.663Z,4.80
2019-03-12T07:56:42.574Z,3.40
2019-03-12T07:59:12.703Z,3.90
2019-03-12T08:01:46.097Z,3.63
2019-03-12T08:04:16.535Z,4.70
2019-03-12T08:06:59.404Z,4.30
2019-03-12T08:09:35.915Z,4.67
2019-03-12T08:12:23.328Z,4.00
2019-03-12T08:15:02.360Z,4.83
2019-03-12T08:17:45.370Z,4.85
2019-03-12T08:20:30.749Z,4.27
2019-03-12T08:23:12.749Z,4.40
2019-03-12T08:25:44.045Z,4.40
2019-03-12T08:28:17.475Z,4.65
2019-03-12T08:31:04.085Z,4.33
2019-03-12T08:33:50.928Z,4.30
2019-03-12T08:36:18.662Z,3.70
2019-03-12T08:39:00.963Z,4.03
2019-03-12T08:41:31.807Z,3.70
2019-03-12T08:44:08.256Z,4.60
2019-03-12T19:02:04.837Z,1.40
2019-03-12T19:04:35.086Z,1.50
2019-03-12T19:07:05.692Z,1.60
2019-03-12T19:09:36.585Z,1.50
2019-03-12T19:12:06.233Z,1.37
2019-03-12T19:14:35.427Z,1.37
2019-03-12T19:17:04.998Z,2.65
2019-03-12T19:19:35.676Z,3.83
2019-03-12T19:22:06.543Z,7.20
2019-03-12T19:24:35.390Z,10.43
2019-03-12T19:27:04.505Z,5.97
2019-03-12T19:29:33.575Z,7.20
2019-03-12T19:32:04.010Z,4.40
2019-03-12T19:34:32.896Z,2.60
2019-03-12T19:37:03.321Z,2.77
2019-03-12T19:39:32.133Z,2.53
2019-03-12T19:42:01.308Z,3.03
2019-03-12T19:44:30.196Z,2.60
2019-03-12T19:47:04.219Z,2.30
2019-03-12T19:49:31.753Z,2.90
2019-03-12T19:52:02.312Z,5.28
2019-03-12T19:54:31.279Z,3.60
2019-03-12T19:57:02.832Z,6.13
2019-03-12T19:59:31.958Z,5.30
2019-03-12T20:02:02.471Z,3.80
2019-03-12T20:04:33.049Z,4.53
2019-03-12T20:07:03.991Z,4.30
2019-03-12T20:09:34.658Z,4.03
2019-03-12T20:12:04.989Z,3.47
2019-03-12T20:14:52.097Z,3.23
2019-03-12T20:17:22.510Z,3.10
2019-03-12T20:20:09.327Z,3.67
2019-03-12T20:22:48.634Z,2.98
2019-03-12T20:25:37.207Z,3.00
2019-03-12T20:28:24.528Z,2.40
2019-03-12T20:31:08.391Z,2.47
2019-03-12T20:33:44.527Z,2.37
2019-03-12T20:36:33.101Z,2.92
2019-03-12T20:39:17.741Z,2.37
2019-03-12T20:42:00.211Z,2.70
2019-03-12T20:44:45.745Z,2.80
2019-03-12T20:47:20.396Z,3.43
2019-03-12T20:50:05.545Z,3.20
2019-03-12T20:52:54.166Z,2.85
2019-03-12T20:55:41.198Z,3.12
2019-03-12T21:00:44.114Z,3.27
2019-03-12T21:03:17.004Z,3.17
2019-03-12T21:06:02.365Z,2.93
2019-03-12T21:08:51.413Z,2.77
2019-03-12T21:11:39.858Z,1.90
2019-03-12T21:16:54.829Z,3.10
2019-03-12T21:19:42.159Z,3.03
2019-03-12T21:22:12.381Z,4.20
2019-03-12T21:24:59.613Z,3.53
2019-03-12T21:27:36.042Z,4.25
2019-03-12T21:30:05.855Z,2.53
2019-03-12T21:32:34.455Z,3.05
2019-03-12T21:35:04.291Z,3.00
2019-03-12T21:37:33.197Z,3.50
2019-03-12T21:40:03.483Z,3.17
2019-03-12T21:42:32.285Z,3.20
2019-03-12T21:45:04.096Z,3.33
2019-03-12T21:47:32.903Z,2.30
2019-03-12T21:50:01.587Z,2.35
2019-03-12T21:52:30.594Z,3.07
2019-03-12T21:54:59.606Z,2.20
2019-03-12T21:57:29.078Z,2.70
2019-03-12T21:59:58.172Z,2.63
2019-03-12T22:02:27.059Z,2.80
2019-03-12T22:04:56.176Z,3.45
2019-03-12T22:07:24.975Z,3.43
2019-03-12T22:09:53.852Z,3.70
2019-03-12T22:12:22.722Z,3.43
2019-03-12T22:14:51.610Z,3.08
2019-03-12T22:17:20.727Z,3.10
2019-03-12T22:19:49.901Z,3.08
2019-03-12T22:22:28.948Z,2.67
2019-03-12T22:24:57.735Z,2.12
2019-03-12T22:27:26.628Z,2.73
2019-03-12T22:29:55.412Z,2.55
2019-03-12T22:32:24.173Z,3.12
2019-03-12T22:34:53.267Z,3.25
2019-03-12T22:37:22.158Z,3.35
2019-03-12T22:39:50.744Z,3.75
2019-03-12T22:42:19.522Z,2.80
2019-03-12T22:44:48.413Z,2.60
2019-03-12T22:47:18.330Z,2.77
2019-03-12T22:49:47.114Z,3.65
2019-03-12T22:52:15.724Z,2.73
2019-03-12T22:54:44.278Z,3.55
2019-03-12T22:57:12.862Z,2.67
2019-03-12T22:59:59.781Z,3.67
2019-03-12T23:02:46.787Z,2.93
2019-03-12T23:08:19.484Z,3.67
2019-03-12T23:10:50.525Z,3.93
2019-03-12T23:13:19.211Z,3.37
2019-03-12T23:15:49.040Z,2.80
2019-03-12T23:18:18.830Z,3.13
2019-03-12T23:20:47.609Z,3.93
2019-03-12T23:23:16.198Z,3.37
2019-03-12T23:25:44.982Z,3.20
2019-03-12T23:28:13.769Z,3.70
2019-03-12T23:30:42.702Z,3.05
2019-03-12T23:33:12.883Z,3.20
2019-03-12T23:35:41.665Z,3.17
2019-03-12T23:38:10.250Z,3.53
2019-03-12T23:40:39.349Z,3.77
2019-03-12T23:43:08.334Z,3.13
2019-03-12T23:45:37.118Z,5.73
2019-03-12T23:48:06.838Z,5.53
2019-03-12T23:50:35.822Z,4.73
2019-03-12T23:53:06.355Z,4.26
2019-03-12T23:55:35.252Z,3.63
2019-03-12T23:58:03.843Z,2.87
